Terminal Aerodrome Forecast
Issued by NWS Duluth, MN

Home | Current Version | Previous Version | Text Only | Print | Product List | Glossary On
Versions: 1 2 3 4 5 6 7 8 9 10 11 12 13 14 15 16
031
FTUS43 KDLH 221725
TAFINL
TAF
KINL 221725Z 2218/2318 29009G16KT P6SM SKC
     FM230100 30003KT P6SM SKC
     FM230600 36002KT P6SM SKC
     FM231200 12004KT P6SM FEW250=

USA.gov is the U.S. government's official web portal to all federal, state and local government web resources and services.